sensor_id;sensor_type;location;lat;lon;timestamp;temperature;humidity
1025;DHT22;501;48.214;11.350;2022-10-16T00:01:23;13.80;67.30
1025;DHT22;501;48.214;11.350;2022-10-16T00:03:50;13.80;66.20
1025;DHT22;501;48.214;11.350;2022-10-16T00:06:17;13.70;66.60
1025;DHT22;501;48.214;11.350;2022-10-16T00:08:43;13.70;67.30
1025;DHT22;501;48.214;11.350;2022-10-16T00:11:17;13.70;67.30
1025;DHT22;501;48.214;11.350;2022-10-16T00:13:45;13.70;67.30
1025;DHT22;501;48.214;11.350;2022-10-16T00:16:12;13.70;67.40
1025;DHT22;501;48.214;11.350;2022-10-16T00:18:38;13.60;70.50
1025;DHT22;501;48.214;11.350;2022-10-16T00:21:12;13.60;73.70
1025;DHT22;501;48.214;11.350;2022-10-16T00:23:38;13.70;75.00
1025;DHT22;501;48.214;11.350;2022-10-16T00:26:07;13.60;76.10
1025;DHT22;501;48.214;11.350;2022-10-16T00:28:34;13.60;76.20
1025;DHT22;501;48.214;11.350;2022-10-16T00:31:03;13.70;75.80
1025;DHT22;501;48.214;11.350;2022-10-16T00:33:28;13.70;75.00
1025;DHT22;501;48.214;11.350;2022-10-16T00:35:58;13.70;74.30
1025;DHT22;501;48.214;11.350;2022-10-16T00:38:24;13.70;74.10
1025;DHT22;501;48.214;11.350;2022-10-16T00:40:49;13.70;73.80
1025;DHT22;501;48.214;11.350;2022-10-16T00:46:04;13.70;73.30
1025;DHT22;501;48.214;11.350;2022-10-16T00:48:31;13.70;73.10
1025;DHT22;501;48.214;11.350;2022-10-16T00:50:57;13.60;72.40
1025;DHT22;501;48.214;11.350;2022-10-16T00:53:25;13.60;71.50
1025;DHT22;501;48.214;11.350;2022-10-16T00:55:52;13.60;71.40
1025;DHT22;501;48.214;11.350;2022-10-16T00:58:18;13.60;71.50
1025;DHT22;501;48.214;11.350;2022-10-16T01:00:44;13.60;71.50
1025;DHT22;501;48.214;11.350;2022-10-16T01:03:33;13.60;71.50
1025;DHT22;501;48.214;11.350;2022-10-16T01:09:03;13.60;70.80
1025;DHT22;501;48.214;11.350;2022-10-16T01:11:46;13.60;70.70
1025;DHT22;501;48.214;11.350;2022-10-16T01:14:23;13.60;70.20
1025;DHT22;501;48.214;11.350;2022-10-16T01:17:28;13.50;69.80
1025;DHT22;501;48.214;11.350;2022-10-16T01:28:14;13.50;71.20
1025;DHT22;501;48.214;11.350;2022-10-16T01:30:42;13.40;70.50
1025;DHT22;501;48.214;11.350;2022-10-16T01:33:21;13.40;70.60
1025;DHT22;501;48.214;11.350;2022-10-16T01:35:58;13.40;69.90
1025;DHT22;501;48.214;11.350;2022-10-16T01:38:37;13.40;69.80
1025;DHT22;501;48.214;11.350;2022-10-16T01:41:15;13.40;70.10
1025;DHT22;501;48.214;11.350;2022-10-16T01:44:08;13.30;70.10
1025;DHT22;501;48.214;11.350;2022-10-16T01:46:37;13.30;70.50
1025;DHT22;501;48.214;11.350;2022-10-16T01:49:05;13.30;70.80
1025;DHT22;501;48.214;11.350;2022-10-16T01:51:32;13.30;71.10
1025;DHT22;501;48.214;11.350;2022-10-16T01:54:00;13.30;71.70
1025;DHT22;501;48.214;11.350;2022-10-16T01:56:28;13.30;71.50
1025;DHT22;501;48.214;11.350;2022-10-16T02:01:30;13.30;71.00
1025;DHT22;501;48.214;11.350;2022-10-16T02:03:59;13.30;70.70
1025;DHT22;501;48.214;11.350;2022-10-16T02:06:27;13.30;71.00
1025;DHT22;501;48.214;11.350;2022-10-16T02:08:53;13.30;70.60
1025;DHT22;501;48.214;11.350;2022-10-16T02:11:19;13.30;70.60
1025;DHT22;501;48.214;11.350;2022-10-16T02:14:04;13.30;70.90
1025;DHT22;501;48.214;11.350;2022-10-16T02:16:56;13.20;71.50
1025;DHT22;501;48.214;11.350;2022-10-16T02:19:22;13.20;71.80
1025;DHT22;501;48.214;11.350;2022-10-16T02:21:57;13.30;71.40
1025;DHT22;501;48.214;11.350;2022-10-16T02:24:33;13.20;71.50
1025;DHT22;501;48.214;11.350;2022-10-16T02:27:16;13.20;71.30
1025;DHT22;501;48.214;11.350;2022-10-16T02:29:53;13.20;71.30
1025;DHT22;501;48.214;11.350;2022-10-16T02:32:24;13.10;71.40
1025;DHT22;501;48.214;11.350;2022-10-16T02:34:53;13.10;71.50
1025;DHT22;501;48.214;11.350;2022-10-16T02:37:19;13.10;71.40
1025;DHT22;501;48.214;11.350;2022-10-16T02:39:45;13.10;71.40
1025;DHT22;501;48.214;11.350;2022-10-16T02:42:17;13.10;71.60
1025;DHT22;501;48.214;11.350;2022-10-16T02:44:42;13.10;71.70
1025;DHT22;501;48.214;11.350;2022-10-16T02:47:08;13.10;71.40
1025;DHT22;501;48.214;11.350;2022-10-16T02:49:34;13.00;71.50
1025;DHT22;501;48.214;11.350;2022-10-16T02:51:59;13.00;70.70
1025;DHT22;501;48.214;11.350;2022-10-16T02:54:25;13.00;70.10
1025;DHT22;501;48.214;11.350;2022-10-16T02:56:50;13.00;70.00
1025;DHT22;501;48.214;11.350;2022-10-16T02:59:17;12.90;70.40
1025;DHT22;501;48.214;11.350;2022-10-16T03:01:42;13.00;71.80
1025;DHT22;501;48.214;11.350;2022-10-16T03:04:08;13.00;72.50
1025;DHT22;501;48.214;11.350;2022-10-16T03:06:34;13.00;73.10
1025;DHT22;501;48.214;11.350;2022-10-16T03:09:00;13.00;73.70
1025;DHT22;501;48.214;11.350;2022-10-16T03:11:25;13.00;74.20
1025;DHT22;501;48.214;11.350;2022-10-16T03:13:51;13.00;74.60
1025;DHT22;501;48.214;11.350;2022-10-16T03:16:17;13.00;75.40
1025;DHT22;501;48.214;11.350;2022-10-16T03:18:43;13.00;75.80
1025;DHT22;501;48.214;11.350;2022-10-16T03:21:08;13.00;76.10
1025;DHT22;501;48.214;11.350;2022-10-16T03:23:34;13.00;76.20
1025;DHT22;501;48.214;11.350;2022-10-16T03:25:59;13.00;76.40
1025;DHT22;501;48.214;11.350;2022-10-16T03:28:25;13.00;77.10
1025;DHT22;501;48.214;11.350;2022-10-16T03:30:51;13.10;77.20
1025;DHT22;501;48.214;11.350;2022-10-16T03:33:16;13.00;77.80
1025;DHT22;501;48.214;11.350;2022-10-16T03:35:42;13.10;78.50
1025;DHT22;501;48.214;11.350;2022-10-16T03:38:07;13.10;79.10
1025;DHT22;501;48.214;11.350;2022-10-16T03:40:33;13.10;78.30
1025;DHT22;501;48.214;11.350;2022-10-16T03:42:59;13.10;77.90
1025;DHT22;501;48.214;11.350;2022-10-16T03:45:25;13.10;78.30
1025;DHT22;501;48.214;11.350;2022-10-16T03:47:51;13.10;78.70
1025;DHT22;501;48.214;11.350;2022-10-16T03:50:17;13.10;78.80
1025;DHT22;501;48.214;11.350;2022-10-16T03:52:42;13.10;78.90
1025;DHT22;501;48.214;11.350;2022-10-16T03:55:08;13.20;79.10
1025;DHT22;501;48.214;11.350;2022-10-16T03:57:34;13.20;79.20
1025;DHT22;501;48.214;11.350;2022-10-16T03:59:59;13.20;78.70
1025;DHT22;501;48.214;11.350;2022-10-16T04:02:25;13.20;78.50
1025;DHT22;501;48.214;11.350;2022-10-16T04:04:50;13.20;78.40
1025;DHT22;501;48.214;11.350;2022-10-16T04:07:16;13.20;78.40
1025;DHT22;501;48.214;11.350;2022-10-16T04:09:42;13.20;78.50
1025;DHT22;501;48.214;11.350;2022-10-16T04:12:07;13.30;79.10
1025;DHT22;501;48.214;11.350;2022-10-16T04:14:33;13.30;79.90
1025;DHT22;501;48.214;11.350;2022-10-16T04:16:59;13.30;80.10
1025;DHT22;501;48.214;11.350;2022-10-16T04:19:25;13.30;79.40
1025;DHT22;501;48.214;11.350;2022-10-16T04:21:51;13.30;79.60
1025;DHT22;501;48.214;11.350;2022-10-16T04:24:16;13.30;79.10
1025;DHT22;501;48.214;11.350;2022-10-16T04:26:42;13.30;79.30
1025;DHT22;501;48.214;11.350;2022-10-16T04:29:08;13.30;79.00
1025;DHT22;501;48.214;11.350;2022-10-16T04:31:36;13.40;79.40
1025;DHT22;501;48.214;11.350;2022-10-16T04:34:02;13.40;80.80
1025;DHT22;501;48.214;11.350;2022-10-16T04:36:27;13.40;81.00
1025;DHT22;501;48.214;11.350;2022-10-16T04:38:53;13.40;80.60
1025;DHT22;501;48.214;11.350;2022-10-16T04:41:19;13.40;79.90
1025;DHT22;501;48.214;11.350;2022-10-16T04:43:45;13.40;79.40
1025;DHT22;501;48.214;11.350;2022-10-16T04:46:10;13.40;80.70
1025;DHT22;501;48.214;11.350;2022-10-16T04:48:36;13.40;80.60
1025;DHT22;501;48.214;11.350;2022-10-16T04:51:01;13.40;80.10
1025;DHT22;501;48.214;11.350;2022-10-16T04:53:27;13.40;79.80
1025;DHT22;501;48.214;11.350;2022-10-16T04:55:52;13.40;80.00
1025;DHT22;501;48.214;11.350;2022-10-16T04:58:18;13.40;80.40
1025;DHT22;501;48.214;11.350;2022-10-16T05:00:44;13.40;80.70
1025;DHT22;501;48.214;11.350;2022-10-16T05:03:12;13.40;80.40
1025;DHT22;501;48.214;11.350;2022-10-16T05:05:43;13.40;79.70
1025;DHT22;501;48.214;11.350;2022-10-16T05:08:12;13.40;79.20
1025;DHT22;501;48.214;11.350;2022-10-16T05:10:41;13.40;79.10
1025;DHT22;501;48.214;11.350;2022-10-16T05:13:08;13.40;78.90
1025;DHT22;501;48.214;11.350;2022-10-16T05:15:33;13.40;79.20
1025;DHT22;501;48.214;11.350;2022-10-16T05:17:59;13.40;79.00
1025;DHT22;501;48.214;11.350;2022-10-16T05:20:25;13.50;79.20
1025;DHT22;501;48.214;11.350;2022-10-16T05:22:50;13.40;79.10
1025;DHT22;501;48.214;11.350;2022-10-16T05:25:16;13.40;79.00
1025;DHT22;501;48.214;11.350;2022-10-16T05:27:42;13.40;79.10
1025;DHT22;501;48.214;11.350;2022-10-16T05:30:08;13.40;79.00
1025;DHT22;501;48.214;11.350;2022-10-16T05:32:34;13.40;78.90
1025;DHT22;501;48.214;11.350;2022-10-16T05:34:59;13.40;79.10
1025;DHT22;501;48.214;11.350;2022-10-16T05:37:27;13.40;78.80
1025;DHT22;501;48.214;11.350;2022-10-16T05:39:52;13.30;77.90
1025;DHT22;501;48.214;11.350;2022-10-16T05:42:18;13.30;77.40
1025;DHT22;501;48.214;11.350;2022-10-16T05:44:44;13.40;77.50
1025;DHT22;501;48.214;11.350;2022-10-16T05:47:09;13.30;77.40
1025;DHT22;501;48.214;11.350;2022-10-16T05:49:36;13.30;77.30
1025;DHT22;501;48.214;11.350;2022-10-16T05:52:01;13.30;77.10
1025;DHT22;501;48.214;11.350;2022-10-16T05:54:27;13.40;77.10
1025;DHT22;501;48.214;11.350;2022-10-16T05:56:53;13.40;76.40
1025;DHT22;501;48.214;11.350;2022-10-16T05:59:18;13.40;75.80
1025;DHT22;501;48.214;11.350;2022-10-16T06:01:44;13.30;75.10
1025;DHT22;501;48.214;11.350;2022-10-16T06:04:09;13.30;74.70
1025;DHT22;501;48.214;11.350;2022-10-16T06:06:35;13.30;74.20
1025;DHT22;501;48.214;11.350;2022-10-16T06:09:02;13.30;73.80
1025;DHT22;501;48.214;11.350;2022-10-16T06:11:30;13.20;73.60
1025;DHT22;501;48.214;11.350;2022-10-16T06:13:58;13.20;74.10
1025;DHT22;501;48.214;11.350;2022-10-16T06:16:25;13.20;73.80
1025;DHT22;501;48.214;11.350;2022-10-16T06:18:52;13.20;73.30
1025;DHT22;501;48.214;11.350;2022-10-16T06:21:20;13.20;73.70
1025;DHT22;501;48.214;11.350;2022-10-16T06:23:46;13.20;75.10
1025;DHT22;501;48.214;11.350;2022-10-16T06:26:18;13.10;74.40
1025;DHT22;501;48.214;11.350;2022-10-16T06:28:45;13.10;73.80
1025;DHT22;501;48.214;11.350;2022-10-16T06:31:11;13.10;73.80
1025;DHT22;501;48.214;11.350;2022-10-16T06:33:38;13.10;73.50
1025;DHT22;501;48.214;11.350;2022-10-16T06:36:15;13.10;73.10
1025;DHT22;501;48.214;11.350;2022-10-16T06:38:41;13.00;73.50
1025;DHT22;501;48.214;11.350;2022-10-16T06:41:09;13.10;73.70
1025;DHT22;501;48.214;11.350;2022-10-16T06:43:35;13.00;73.60
1025;DHT22;501;48.214;11.350;2022-10-16T06:46:01;13.00;73.80
1025;DHT22;501;48.214;11.350;2022-10-16T06:48:28;13.00;73.90
1025;DHT22;501;48.214;11.350;2022-10-16T06:51:06;13.00;74.40
1025;DHT22;501;48.214;11.350;2022-10-16T06:53:34;13.00;74.80
1025;DHT22;501;48.214;11.350;2022-10-16T06:56:24;13.00;75.20
1025;DHT22;501;48.214;11.350;2022-10-16T06:58:50;13.00;76.40
1025;DHT22;501;48.214;11.350;2022-10-16T07:01:18;12.90;76.30
1025;DHT22;501;48.214;11.350;2022-10-16T07:03:45;13.00;76.10
1025;DHT22;501;48.214;11.350;2022-10-16T07:06:13;12.90;76.90
1025;DHT22;501;48.214;11.350;2022-10-16T07:08:41;12.90;77.30
1025;DHT22;501;48.214;11.350;2022-10-16T07:11:09;13.00;78.50
1025;DHT22;501;48.214;11.350;2022-10-16T07:13:36;13.00;80.00
1025;DHT22;501;48.214;11.350;2022-10-16T07:16:07;13.10;81.10
1025;DHT22;501;48.214;11.350;2022-10-16T07:18:33;13.00;81.60
1025;DHT22;501;48.214;11.350;2022-10-16T07:21:07;13.10;83.50
1025;DHT22;501;48.214;11.350;2022-10-16T07:23:33;13.20;85.40
1025;DHT22;501;48.214;11.350;2022-10-16T07:25:58;13.20;87.20
1025;DHT22;501;48.214;11.350;2022-10-16T07:28:24;13.30;87.80
1025;DHT22;501;48.214;11.350;2022-10-16T07:30:50;13.30;88.50
1025;DHT22;501;48.214;11.350;2022-10-16T07:33:16;13.40;88.60
1025;DHT22;501;48.214;11.350;2022-10-16T07:35:52;13.40;89.20
1025;DHT22;501;48.214;11.350;2022-10-16T07:38:18;13.40;90.40
1025;DHT22;501;48.214;11.350;2022-10-16T07:40:44;13.50;91.10
1025;DHT22;501;48.214;11.350;2022-10-16T07:43:10;13.60;92.30
1025;DHT22;501;48.214;11.350;2022-10-16T07:45:35;13.60;92.60
1025;DHT22;501;48.214;11.350;2022-10-16T07:48:01;13.70;92.90
1025;DHT22;501;48.214;11.350;2022-10-16T07:50:26;13.80;93.00
1025;DHT22;501;48.214;11.350;2022-10-16T07:52:52;13.90;92.70
1025;DHT22;501;48.214;11.350;2022-10-16T07:55:17;14.00;91.80
1025;DHT22;501;48.214;11.350;2022-10-16T07:57:43;14.10;91.50
1025;DHT22;501;48.214;11.350;2022-10-16T08:00:09;14.20;91.10
1025;DHT22;501;48.214;11.350;2022-10-16T08:02:39;14.30;91.20
1025;DHT22;501;48.214;11.350;2022-10-16T08:05:06;14.40;91.40
1025;DHT22;501;48.214;11.350;2022-10-16T08:07:32;14.50;89.60
1025;DHT22;501;48.214;11.350;2022-10-16T08:09:57;14.60;88.00
1025;DHT22;501;48.214;11.350;2022-10-16T08:12:24;14.70;85.70
1025;DHT22;501;48.214;11.350;2022-10-16T08:14:50;14.90;81.70
1025;DHT22;501;48.214;11.350;2022-10-16T08:17:16;15.00;78.90
1025;DHT22;501;48.214;11.350;2022-10-16T08:19:47;15.10;79.00
1025;DHT22;501;48.214;11.350;2022-10-16T08:22:14;15.30;78.60
1025;DHT22;501;48.214;11.350;2022-10-16T08:24:40;15.40;77.10
1025;DHT22;501;48.214;11.350;2022-10-16T08:27:06;15.50;74.40
1025;DHT22;501;48.214;11.350;2022-10-16T08:29:34;15.70;70.90
1025;DHT22;501;48.214;11.350;2022-10-16T08:32:00;15.80;69.10
1025;DHT22;501;48.214;11.350;2022-10-16T08:34:26;16.00;66.00
1025;DHT22;501;48.214;11.350;2022-10-16T08:36:53;16.20;62.60
1025;DHT22;501;48.214;11.350;2022-10-16T08:39:19;16.30;62.80
1025;DHT22;501;48.214;11.350;2022-10-16T08:42:04;16.50;59.20
1025;DHT22;501;48.214;11.350;2022-10-16T08:47:26;16.80;59.90
1025;DHT22;501;48.214;11.350;2022-10-16T08:50:00;16.90;59.60
1025;DHT22;501;48.214;11.350;2022-10-16T08:52:34;17.00;59.90
1025;DHT22;501;48.214;11.350;2022-10-16T08:55:01;17.10;60.20
1025;DHT22;501;48.214;11.350;2022-10-16T08:57:27;17.20;58.20
1025;DHT22;501;48.214;11.350;2022-10-16T08:59:53;17.30;56.90
1025;DHT22;501;48.214;11.350;2022-10-16T09:16:44;17.80;51.50
1025;DHT22;501;48.214;11.350;2022-10-16T09:19:26;17.90;51.20
1025;DHT22;501;48.214;11.350;2022-10-16T09:21:55;18.10;52.00
1025;DHT22;501;48.214;11.350;2022-10-16T09:24:25;18.10;52.00
1025;DHT22;501;48.214;11.350;2022-10-16T09:26:51;18.30;52.10
1025;DHT22;501;48.214;11.350;2022-10-16T09:29:18;18.30;51.80
1025;DHT22;501;48.214;11.350;2022-10-16T09:31:45;18.50;49.50
1025;DHT22;501;48.214;11.350;2022-10-16T09:36:48;18.70;48.70
1025;DHT22;501;48.214;11.350;2022-10-16T09:39:14;18.70;48.10
1025;DHT22;501;48.214;11.350;2022-10-16T09:41:43;18.80;47.70
1025;DHT22;501;48.214;11.350;2022-10-16T09:44:23;18.90;47.60
1025;DHT22;501;48.214;11.350;2022-10-16T09:46:49;18.90;47.10
1025;DHT22;501;48.214;11.350;2022-10-16T09:49:26;19.00;46.90
1025;DHT22;501;48.214;11.350;2022-10-16T09:52:04;19.00;46.60
1025;DHT22;501;48.214;11.350;2022-10-16T09:54:29;19.10;46.70
1025;DHT22;501;48.214;11.350;2022-10-16T09:57:05;19.20;46.70
1025;DHT22;501;48.214;11.350;2022-10-16T09:59:31;19.20;47.70
1025;DHT22;501;48.214;11.350;2022-10-16T10:02:02;19.30;47.50
1025;DHT22;501;48.214;11.350;2022-10-16T10:04:38;19.30;46.70
1025;DHT22;501;48.214;11.350;2022-10-16T10:07:05;19.40;46.80
1025;DHT22;501;48.214;11.350;2022-10-16T10:09:42;19.50;46.80
1025;DHT22;501;48.214;11.350;2022-10-16T10:12:24;19.60;46.90
1025;DHT22;501;48.214;11.350;2022-10-16T10:14:52;19.70;45.30
1025;DHT22;501;48.214;11.350;2022-10-16T10:17:25;19.70;43.70
1025;DHT22;501;48.214;11.350;2022-10-16T10:19:57;19.80;44.60
1025;DHT22;501;48.214;11.350;2022-10-16T10:25:18;20.00;42.70
1025;DHT22;501;48.214;11.350;2022-10-16T10:27:51;20.20;45.40
1025;DHT22;501;48.214;11.350;2022-10-16T10:30:24;20.30;42.50
1025;DHT22;501;48.214;11.350;2022-10-16T10:35:29;20.50;41.70
1025;DHT22;501;48.214;11.350;2022-10-16T10:38:27;20.70;41.00
1025;DHT22;501;48.214;11.350;2022-10-16T10:40:55;20.80;41.70
1025;DHT22;501;48.214;11.350;2022-10-16T10:46:28;21.00;40.00
1025;DHT22;501;48.214;11.350;2022-10-16T10:51:40;21.20;41.10
1025;DHT22;501;48.214;11.350;2022-10-16T10:57:21;21.20;40.80
1025;DHT22;501;48.214;11.350;2022-10-16T11:05:44;21.30;37.60
1025;DHT22;501;48.214;11.350;2022-10-16T11:08:26;21.40;37.80
1025;DHT22;501;48.214;11.350;2022-10-16T11:11:15;21.40;36.40
1025;DHT22;501;48.214;11.350;2022-10-16T11:14:06;21.50;35.40
1025;DHT22;501;48.214;11.350;2022-10-16T11:16:44;21.60;36.50
1025;DHT22;501;48.214;11.350;2022-10-16T11:19:25;21.70;36.50
1025;DHT22;501;48.214;11.350;2022-10-16T11:28:22;21.80;35.40
1025;DHT22;501;48.214;11.350;2022-10-16T11:33:36;22.00;34.30
1025;DHT22;501;48.214;11.350;2022-10-16T11:36:22;22.10;33.00
1025;DHT22;501;48.214;11.350;2022-10-16T11:39:54;22.10;33.60
1025;DHT22;501;48.214;11.350;2022-10-16T11:41:54;22.10;34.30
1025;DHT22;501;48.214;11.350;2022-10-16T11:44:51;22.20;34.90
1025;DHT22;501;48.214;11.350;2022-10-16T11:50:25;22.30;34.60
1025;DHT22;501;48.214;11.350;2022-10-16T11:55:39;22.40;33.00
1025;DHT22;501;48.214;11.350;2022-10-16T12:08:51;22.70;28.90
1025;DHT22;501;48.214;11.350;2022-10-16T12:13:52;22.80;29.30
1025;DHT22;501;48.214;11.350;2022-10-16T12:16:28;22.80;29.90
1025;DHT22;501;48.214;11.350;2022-10-16T12:19:14;22.70;29.70
1025;DHT22;501;48.214;11.350;2022-10-16T12:21:41;22.70;33.20
1025;DHT22;501;48.214;11.350;2022-10-16T12:26:52;22.70;30.20
1025;DHT22;501;48.214;11.350;2022-10-16T12:29:22;22.70;29.70
1025;DHT22;501;48.214;11.350;2022-10-16T12:31:49;22.70;30.10
1025;DHT22;501;48.214;11.350;2022-10-16T12:34:32;22.80;29.00
1025;DHT22;501;48.214;11.350;2022-10-16T12:39:45;23.20;31.90
1025;DHT22;501;48.214;11.350;2022-10-16T12:42:31;23.50;31.90
1025;DHT22;501;48.214;11.350;2022-10-16T12:44:57;24.00;29.90
1025;DHT22;501;48.214;11.350;2022-10-16T12:49:58;25.00;31.10
1025;DHT22;501;48.214;11.350;2022-10-16T12:52:31;25.60;27.00
1025;DHT22;501;48.214;11.350;2022-10-16T12:55:00;26.30;28.10
1025;DHT22;501;48.214;11.350;2022-10-16T12:57:58;26.80;27.20
1025;DHT22;501;48.214;11.350;2022-10-16T13:22:57;31.00;24.20
1025;DHT22;501;48.214;11.350;2022-10-16T13:28:28;31.50;22.50
1025;DHT22;501;48.214;11.350;2022-10-16T13:30:57;31.80;22.30
1025;DHT22;501;48.214;11.350;2022-10-16T13:35:56;32.10;21.20
1025;DHT22;501;48.214;11.350;2022-10-16T13:38:24;32.30;21.40
1025;DHT22;501;48.214;11.350;2022-10-16T13:40:59;32.50;19.50
1025;DHT22;501;48.214;11.350;2022-10-16T13:43:41;32.60;19.10
1025;DHT22;501;48.214;11.350;2022-10-16T13:46:16;32.60;17.80
1025;DHT22;501;48.214;11.350;2022-10-16T13:48:42;32.60;17.60
1025;DHT22;501;48.214;11.350;2022-10-16T13:51:16;32.70;18.10
1025;DHT22;501;48.214;11.350;2022-10-16T13:53:43;32.70;17.50
1025;DHT22;501;48.214;11.350;2022-10-16T13:56:14;32.80;17.70
1025;DHT22;501;48.214;11.350;2022-10-16T13:58:40;32.70;17.30
1025;DHT22;501;48.214;11.350;2022-10-16T14:01:20;32.60;17.90
1025;DHT22;501;48.214;11.350;2022-10-16T14:03:48;32.50;18.00
1025;DHT22;501;48.214;11.350;2022-10-16T14:06:17;32.20;17.70
1025;DHT22;501;48.214;11.350;2022-10-16T14:08:48;31.90;17.70
1025;DHT22;501;48.214;11.350;2022-10-16T14:11:23;31.60;16.90
1025;DHT22;501;48.214;11.350;2022-10-16T14:13:50;31.10;17.00
1025;DHT22;501;48.214;11.350;2022-10-16T14:16:27;30.60;17.30
1025;DHT22;501;48.214;11.350;2022-10-16T14:19:01;30.10;17.80
1025;DHT22;501;48.214;11.350;2022-10-16T14:21:27;29.70;18.80
1025;DHT22;501;48.214;11.350;2022-10-16T14:23:53;29.30;19.20
1025;DHT22;501;48.214;11.350;2022-10-16T14:26:22;29.00;18.80
1025;DHT22;501;48.214;11.350;2022-10-16T14:29:00;28.70;19.70
1025;DHT22;501;48.214;11.350;2022-10-16T14:31:32;28.50;21.20
1025;DHT22;501;48.214;11.350;2022-10-16T14:33:59;28.30;20.00
1025;DHT22;501;48.214;11.350;2022-10-16T14:36:26;28.00;21.60
1025;DHT22;501;48.214;11.350;2022-10-16T14:39:05;27.80;22.70
1025;DHT22;501;48.214;11.350;2022-10-16T14:41:34;27.50;24.50
1025;DHT22;501;48.214;11.350;2022-10-16T14:44:06;27.20;24.60
1025;DHT22;501;48.214;11.350;2022-10-16T14:46:36;26.90;25.20
1025;DHT22;501;48.214;11.350;2022-10-16T14:51:41;26.40;24.40
1025;DHT22;501;48.214;11.350;2022-10-16T14:54:17;26.10;24.90
1025;DHT22;501;48.214;11.350;2022-10-16T14:56:50;25.80;25.40
1025;DHT22;501;48.214;11.350;2022-10-16T14:59:19;25.60;26.60
1025;DHT22;501;48.214;11.350;2022-10-16T15:01:47;25.40;27.30
1025;DHT22;501;48.214;11.350;2022-10-16T15:04:15;25.10;27.50
1025;DHT22;501;48.214;11.350;2022-10-16T15:06:41;24.90;29.00
1025;DHT22;501;48.214;11.350;2022-10-16T15:09:07;24.70;29.60
1025;DHT22;501;48.214;11.350;2022-10-16T15:11:33;24.50;29.30
1025;DHT22;501;48.214;11.350;2022-10-16T15:13:59;24.40;30.00
1025;DHT22;501;48.214;11.350;2022-10-16T15:16:25;24.20;29.50
1025;DHT22;501;48.214;11.350;2022-10-16T15:18:50;24.10;29.00
1025;DHT22;501;48.214;11.350;2022-10-16T15:21:24;24.00;29.70
1025;DHT22;501;48.214;11.350;2022-10-16T15:23:51;23.90;29.90
1025;DHT22;501;48.214;11.350;2022-10-16T15:26:17;23.80;31.70
1025;DHT22;501;48.214;11.350;2022-10-16T15:28:43;23.70;32.00
1025;DHT22;501;48.214;11.350;2022-10-16T15:31:08;23.60;32.40
1025;DHT22;501;48.214;11.350;2022-10-16T15:33:34;23.50;32.20
1025;DHT22;501;48.214;11.350;2022-10-16T15:36:01;23.40;32.40
1025;DHT22;501;48.214;11.350;2022-10-16T15:38:28;23.30;32.90
1025;DHT22;501;48.214;11.350;2022-10-16T15:40:54;23.20;33.30
1025;DHT22;501;48.214;11.350;2022-10-16T15:43:20;23.10;33.60
1025;DHT22;501;48.214;11.350;2022-10-16T15:48:28;22.90;35.00
1025;DHT22;501;48.214;11.350;2022-10-16T15:50:54;22.80;35.70
1025;DHT22;501;48.214;11.350;2022-10-16T15:53:20;22.70;36.60
1025;DHT22;501;48.214;11.350;2022-10-16T15:55:45;22.60;36.70
1025;DHT22;501;48.214;11.350;2022-10-16T15:58:11;22.50;37.60
1025;DHT22;501;48.214;11.350;2022-10-16T16:00:37;22.30;37.60
1025;DHT22;501;48.214;11.350;2022-10-16T16:03:03;22.20;38.10
1025;DHT22;501;48.214;11.350;2022-10-16T16:05:29;22.10;38.70
1025;DHT22;501;48.214;11.350;2022-10-16T16:07:54;21.90;38.90
1025;DHT22;501;48.214;11.350;2022-10-16T16:10:20;21.80;39.20
1025;DHT22;501;48.214;11.350;2022-10-16T16:12:47;21.70;39.50
1025;DHT22;501;48.214;11.350;2022-10-16T16:15:18;21.50;40.10
1025;DHT22;501;48.214;11.350;2022-10-16T16:17:44;21.40;40.60
1025;DHT22;501;48.214;11.350;2022-10-16T16:20:10;21.30;40.90
1025;DHT22;501;48.214;11.350;2022-10-16T16:22:36;21.20;41.30
1025;DHT22;501;48.214;11.350;2022-10-16T16:25:02;21.10;41.20
1025;DHT22;501;48.214;11.350;2022-10-16T16:27:28;21.00;41.50
1025;DHT22;501;48.214;11.350;2022-10-16T16:29:55;20.80;42.00
1025;DHT22;501;48.214;11.350;2022-10-16T16:32:21;20.70;42.50
1025;DHT22;501;48.214;11.350;2022-10-16T16:34:47;20.60;42.80
1025;DHT22;501;48.214;11.350;2022-10-16T16:37:13;20.50;43.20
1025;DHT22;501;48.214;11.350;2022-10-16T16:39:38;20.40;43.40
1025;DHT22;501;48.214;11.350;2022-10-16T16:42:04;20.20;43.80
1025;DHT22;501;48.214;11.350;2022-10-16T16:44:32;20.10;44.20
1025;DHT22;501;48.214;11.350;2022-10-16T16:46:57;20.00;44.70
1025;DHT22;501;48.214;11.350;2022-10-16T16:49:23;19.90;45.40
1025;DHT22;501;48.214;11.350;2022-10-16T16:51:49;19.80;46.40
1025;DHT22;501;48.214;11.350;2022-10-16T16:54:15;19.70;46.20
1025;DHT22;501;48.214;11.350;2022-10-16T16:56:41;19.70;47.00
1025;DHT22;501;48.214;11.350;2022-10-16T16:59:13;19.60;46.70
1025;DHT22;501;48.214;11.350;2022-10-16T17:01:39;19.50;47.00
1025;DHT22;501;48.214;11.350;2022-10-16T17:04:05;19.40;47.10
1025;DHT22;501;48.214;11.350;2022-10-16T17:06:31;19.30;47.50
1025;DHT22;501;48.214;11.350;2022-10-16T17:08:58;19.20;48.20
1025;DHT22;501;48.214;11.350;2022-10-16T17:11:25;19.10;48.40
1025;DHT22;501;48.214;11.350;2022-10-16T17:13:53;19.00;48.40
1025;DHT22;501;48.214;11.350;2022-10-16T17:16:20;18.90;48.30
1025;DHT22;501;48.214;11.350;2022-10-16T17:18:46;18.90;48.50
1025;DHT22;501;48.214;11.350;2022-10-16T17:21:12;18.80;49.10
1025;DHT22;501;48.214;11.350;2022-10-16T17:23:38;18.70;49.30
1025;DHT22;501;48.214;11.350;2022-10-16T17:26:10;18.60;49.30
1025;DHT22;501;48.214;11.350;2022-10-16T17:28:35;18.50;49.80
1025;DHT22;501;48.214;11.350;2022-10-16T17:31:16;18.40;49.50
1025;DHT22;501;48.214;11.350;2022-10-16T17:33:43;18.30;49.40
1025;DHT22;501;48.214;11.350;2022-10-16T17:36:09;18.30;49.20
1025;DHT22;501;48.214;11.350;2022-10-16T17:38:36;18.20;49.50
1025;DHT22;501;48.214;11.350;2022-10-16T17:41:12;18.10;49.50
1025;DHT22;501;48.214;11.350;2022-10-16T17:43:39;18.10;50.00
1025;DHT22;501;48.214;11.350;2022-10-16T17:46:06;18.10;50.40
1025;DHT22;501;48.214;11.350;2022-10-16T17:48:36;18.00;50.30
1025;DHT22;501;48.214;11.350;2022-10-16T17:51:07;17.90;50.40
1025;DHT22;501;48.214;11.350;2022-10-16T17:53:34;17.90;50.60
1025;DHT22;501;48.214;11.350;2022-10-16T17:56:07;17.80;50.70
1025;DHT22;501;48.214;11.350;2022-10-16T17:58:33;17.70;51.10
1025;DHT22;501;48.214;11.350;2022-10-16T18:01:37;17.70;51.40
1025;DHT22;501;48.214;11.350;2022-10-16T18:04:09;17.60;51.50
1025;DHT22;501;48.214;11.350;2022-10-16T18:06:37;17.50;52.00
1025;DHT22;501;48.214;11.350;2022-10-16T18:09:04;17.50;52.10
1025;DHT22;501;48.214;11.350;2022-10-16T18:11:30;17.40;52.60
1025;DHT22;501;48.214;11.350;2022-10-16T18:13:57;17.40;53.20
1025;DHT22;501;48.214;11.350;2022-10-16T18:16:25;17.30;53.40
1025;DHT22;501;48.214;11.350;2022-10-16T18:18:53;17.30;53.70
1025;DHT22;501;48.214;11.350;2022-10-16T18:21:19;17.20;53.70